Time;durP1;ratioP1;P1;durP2;ratioP2;P2;SDS_P1;SDS_P2;PMS_P1;PMS_P2;Temp;Humidity;BMP_temperature;BMP_pressure;BME280_temperature;BME280_humidity;BME280_pressure;Samples;Min_cycle;Max_cycle;Signal;HPM_P1;HPM_P2
2023/08/28 00:00:17;;;;;;;1999.90;999.90;;;;;;;15.30;100.00;93839.47;5063791;28;20217;-50
2023/08/28 00:02:46;;;;;;;1999.90;999.90;;;;;;;15.34;100.00;93842.81;5063915;28;20166;-50
2023/08/28 00:05:11;;;;;;;1999.90;999.90;;;;;;;15.30;100.00;93844.25;5063887;28;20173;-50
2023/08/28 00:07:36;;;;;;;1999.90;999.90;;;;;;;15.30;100.00;93844.25;5064338;28;20170;-51
2023/08/28 00:10:02;;;;;;;1999.90;999.90;;;;;;;15.29;100.00;93840.72;5064359;28;20237;-52
2023/08/28 00:12:27;;;;;;;1999.90;999.90;;;;;;;15.28;100.00;93828.19;5063742;28;20166;-48
2023/08/28 00:14:53;;;;;;;1999.90;999.90;;;;;;;15.28;100.00;93819.19;5063804;28;20173;-52
2023/08/28 00:17:18;;;;;;;1999.90;999.90;;;;;;;15.31;100.00;93805.25;5063625;28;20206;-49
2023/08/28 00:19:43;;;;;;;1999.90;999.90;;;;;;;15.29;100.00;93793.97;5064070;28;20188;-50
2023/08/28 00:22:09;;;;;;;1999.90;999.90;;;;;;;15.32;100.00;93776.50;5063812;28;20208;-47
2023/08/28 00:24:34;;;;;;;1999.90;999.90;;;;;;;15.31;100.00;93771.47;5063384;28;20165;-47
2023/08/28 00:26:59;;;;;;;1999.90;999.90;;;;;;;15.31;100.00;93758.50;5064162;28;20193;-49
2023/08/28 00:29:25;;;;;;;1999.90;999.90;;;;;;;15.34;100.00;93768.53;5063647;28;20174;-50
2023/08/28 00:31:50;;;;;;;1999.90;999.90;;;;;;;15.29;100.00;93754.69;5063872;28;20170;-50
2023/08/28 00:34:15;;;;;;;1999.90;999.90;;;;;;;15.25;100.00;93754.88;5063632;28;20177;-49
2023/08/28 00:36:42;;;;;;;1999.90;999.90;;;;;;;15.23;100.00;93751.81;5063448;28;20389;-51
2023/08/28 00:39:07;;;;;;;1999.90;999.90;;;;;;;15.20;100.00;93777.56;5064082;28;20233;-52
2023/08/28 00:41:33;;;;;;;1999.90;999.90;;;;;;;15.21;100.00;93765.31;5063764;28;20177;-50
2023/08/28 00:43:59;;;;;;;1999.90;999.90;;;;;;;15.18;100.00;93777.25;5063725;28;20247;-49
2023/08/28 00:46:25;;;;;;;1999.90;999.90;;;;;;;15.12;100.00;93772.88;5063496;28;20166;-48
2023/08/28 00:48:50;;;;;;;1999.90;999.90;;;;;;;15.04;100.00;93785.47;5064017;28;20170;-52
2023/08/28 00:51:16;;;;;;;1999.90;999.90;;;;;;;15.05;100.00;93784.97;5063526;28;20177;-46
2023/08/28 00:53:41;;;;;;;1999.90;999.90;;;;;;;15.02;100.00;93799.69;5063937;28;20166;-46
2023/08/28 00:56:07;;;;;;;1999.90;999.90;;;;;;;14.96;100.00;93803.53;5063424;28;20206;-47
2023/08/28 00:58:32;;;;;;;1999.90;999.90;;;;;;;14.95;100.00;93802.81;5063493;28;20170;-48
2023/08/28 01:00:58;;;;;;;1999.90;999.90;;;;;;;14.93;100.00;93799.75;5063271;28;20222;-49
2023/08/28 01:03:23;;;;;;;1999.90;999.90;;;;;;;14.96;100.00;93796.06;5063315;28;20169;-49
2023/08/28 01:05:57;;;;;;;1999.90;999.90;;;;;;;14.96;100.00;93807.06;5063587;28;20172;-47
2023/08/28 01:08:26;;;;;;;1999.90;999.90;;;;;;;14.94;100.00;93817.03;5063247;28;20173;-49
2023/08/28 01:10:57;;;;;;;1999.90;999.90;;;;;;;14.90;100.00;93819.94;5064010;28;20174;-50
2023/08/28 01:13:31;;;;;;;1999.90;999.90;;;;;;;14.89;100.00;93823.91;5063757;28;20170;-46
2023/08/28 01:15:58;;;;;;;1999.90;999.90;;;;;;;14.88;100.00;93822.41;5063857;28;20197;-50
2023/08/28 01:18:26;;;;;;;1999.90;999.90;;;;;;;14.85;100.00;93826.09;5063169;28;20177;-50
2023/08/28 01:20:53;;;;;;;1999.90;999.90;;;;;;;14.89;100.00;93826.66;5063164;28;20174;-46
2023/08/28 01:23:31;;;;;;;1999.90;999.90;;;;;;;14.91;100.00;93840.72;5063181;28;20174;-50
2023/08/28 01:25:57;;;;;;;1999.90;999.90;;;;;;;14.86;100.00;93849.59;5063135;28;20170;-49
2023/08/28 01:28:24;;;;;;;1999.90;999.90;;;;;;;14.85;100.00;93855.56;5063566;28;20177;-49
2023/08/28 01:30:51;;;;;;;1999.90;999.90;;;;;;;14.86;100.00;93849.59;5062997;28;20547;-49
2023/08/28 01:33:17;;;;;;;1999.90;999.90;;;;;;;14.89;100.00;93845.91;5065092;28;20181;-49
2023/08/28 01:35:47;;;;;;;1999.90;999.90;;;;;;;14.90;100.00;93844.66;5067064;28;20226;-49
2023/08/28 01:38:36;;;;;;;1999.90;999.90;;;;;;;14.94;100.00;93830.75;5066534;28;20170;-50
2023/08/28 01:41:09;;;;;;;1999.90;999.90;;;;;;;14.85;100.00;93834.34;5066799;28;20262;-45
2023/08/28 01:43:38;;;;;;;1999.90;999.90;;;;;;;14.86;100.00;93833.09;5066928;28;20189;-53
2023/08/28 01:46:04;;;;;;;1999.90;999.90;;;;;;;14.83;100.00;93833.28;5066391;28;20166;-48
2023/08/28 01:48:31;;;;;;;1999.90;999.90;;;;;;;14.82;100.00;93832.50;5066347;28;20208;-48
2023/08/28 01:50:57;;;;;;;1999.90;999.90;;;;;;;14.86;100.00;93824.84;5066523;28;20170;-47
2023/08/28 01:53:22;;;;;;;1999.90;999.90;;;;;;;14.85;100.00;93826.09;5066273;28;20174;-48
2023/08/28 01:56:06;;;;;;;1999.90;999.90;;;;;;;14.88;100.00;93825.16;5066146;28;20206;-49
2023/08/28 01:58:34;;;;;;;1999.90;999.90;;;;;;;14.89;100.00;93821.16;5066102;28;20181;-45
2023/08/28 02:00:59;;;;;;;1999.90;999.90;;;;;;;14.86;100.00;93804.88;5066052;28;20245;-49
2023/08/28 02:03:25;;;;;;;1999.90;999.90;;;;;;;14.84;100.00;93810.81;5066035;28;20370;-49
2023/08/28 02:05:50;;;;;;;1999.90;999.90;;;;;;;14.86;100.00;93811.09;5066054;28;20181;-48
2023/08/28 02:08:15;;;;;;;1999.90;999.90;;;;;;;14.78;100.00;93798.94;5065963;28;20231;-48
2023/08/28 02:10:41;;;;;;;1999.90;999.90;;;;;;;14.68;100.00;93794.00;5065897;28;20174;-48
2023/08/28 02:13:06;;;;;;;1999.90;999.90;;;;;;;14.64;100.00;93793.41;5066076;28;20174;-45
2023/08/28 02:15:31;;;;;;;1999.90;999.90;;;;;;;14.63;100.00;93789.91;5066301;28;20224;-51
2023/08/28 02:17:57;;;;;;;1999.90;999.90;;;;;;;14.68;100.00;93777.50;5066025;28;20267;-48
2023/08/28 02:20:22;;;;;;;1999.90;999.90;;;;;;;14.68;100.00;93781.00;5066206;28;20180;-49
2023/08/28 02:22:47;;;;;;;1999.90;999.90;;;;;;;14.69;100.00;93779.78;5066461;28;20184;-49
2023/08/28 02:25:13;;;;;;;1999.90;999.90;;;;;;;14.70;100.00;93781.31;5065770;28;20224;-50
2023/08/28 02:27:38;;;;;;;1999.90;999.90;;;;;;;14.67;100.00;93774.00;5065386;28;20170;-48
2023/08/28 02:30:04;;;;;;;1999.90;999.90;;;;;;;14.64;100.00;93771.44;5065617;28;20177;-52
2023/08/28 02:32:29;;;;;;;1999.90;999.90;;;;;;;14.62;100.00;93777.41;5065503;28;20174;-46
2023/08/28 02:34:55;;;;;;;1999.90;999.90;;;;;;;14.57;100.00;93760.78;5065595;28;20174;-50
2023/08/28 02:37:21;;;;;;;1999.90;999.90;;;;;;;14.59;100.00;93764.59;5065761;28;20209;-45
2023/08/28 02:39:46;;;;;;;1999.90;999.90;;;;;;;14.58;100.00;93752.09;5065403;28;20208;-49
2023/08/28 02:42:11;;;;;;;1999.90;999.90;;;;;;;14.52;100.00;93753.19;5065317;28;20173;-47
2023/08/28 02:44:37;;;;;;;1999.90;999.90;;;;;;;14.49;100.00;93757.63;5064946;28;20231;-45
2023/08/28 02:47:02;;;;;;;1999.90;999.90;;;;;;;14.52;100.00;93759.44;5065596;28;20219;-51
2023/08/28 02:49:27;;;;;;;1999.90;999.90;;;;;;;14.54;100.00;93746.00;5065992;28;20272;-46
2023/08/28 02:51:53;;;;;;;1999.90;999.90;;;;;;;14.55;100.00;93747.53;5065243;28;20174;-48
2023/08/28 02:54:18;;;;;;;1999.90;999.90;;;;;;;14.51;100.00;93754.41;5065137;28;20209;-48
2023/08/28 02:56:43;;;;;;;1999.90;999.90;;;;;;;14.39;100.00;93761.66;5065384;28;20193;-51
2023/08/28 02:59:09;;;;;;;1999.90;999.90;;;;;;;14.30;100.00;93775.44;5065014;28;20170;-46
2023/08/28 03:01:34;;;;;;;1999.90;999.90;;;;;;;14.38;100.00;93770.38;5064830;28;20289;-51
2023/08/28 03:04:06;;;;;;;1999.90;999.90;;;;;;;14.34;100.00;93765.03;5064936;28;20191;-53
2023/08/28 03:06:36;;;;;;;1999.90;999.90;;;;;;;14.34;100.00;93765.03;5065711;28;20169;-49
2023/08/28 03:09:02;;;;;;;1999.90;999.90;;;;;;;14.26;100.00;93769.38;5064822;28;20577;-53
2023/08/28 03:11:28;;;;;;;1999.90;999.90;;;;;;;14.28;100.00;93780.63;5064522;28;20170;-53
2023/08/28 03:13:54;;;;;;;1999.90;999.90;;;;;;;14.27;100.00;93786.63;5064821;28;20182;-51
2023/08/28 03:16:19;;;;;;;1999.90;999.90;;;;;;;14.15;100.00;93782.81;5065109;28;20201;-50
2023/08/28 03:18:45;;;;;;;1999.90;999.90;;;;;;;14.12;100.00;93781.00;5064632;28;20201;-52
2023/08/28 03:21:10;;;;;;;1999.90;999.90;;;;;;;14.07;100.00;93798.13;5064717;28;20170;-50
2023/08/28 03:23:35;;;;;;;1999.90;999.90;;;;;;;14.11;100.00;93789.69;5064446;28;20174;-52
2023/08/28 03:26:02;;;;;;;1999.90;999.90;;;;;;;14.14;100.00;93784.06;5065079;28;20170;-52
2023/08/28 03:28:27;;;;;;;1999.90;999.90;;;;;;;14.18;100.00;93783.88;5064433;28;20169;-46
2023/08/28 03:30:56;;;;;;;1999.90;999.90;;;;;;;14.11;100.00;93795.19;5064535;28;20177;-48
2023/08/28 03:33:22;;;;;;;1999.90;999.90;;;;;;;14.10;100.00;93794.44;5064800;28;20188;-50
2023/08/28 03:35:47;;;;;;;1999.90;999.90;;;;;;;14.05;100.00;93792.31;5064839;28;20502;-49
2023/08/28 03:38:13;;;;;;;1999.90;999.90;;;;;;;14.06;100.00;93804.06;5064347;28;20174;-48
2023/08/28 03:40:39;;;;;;;1999.90;999.90;;;;;;;14.08;100.00;93802.38;5064692;28;20216;-47
2023/08/28 03:43:04;;;;;;;1999.90;999.90;;;;;;;14.10;100.00;93816.41;5064125;28;20190;-49
2023/08/28 03:45:30;;;;;;;1999.90;999.90;;;;;;;14.14;100.00;93814.25;5064266;28;20257;-48
2023/08/28 03:47:55;;;;;;;1999.90;999.90;;;;;;;14.20;100.00;93828.13;5064056;28;20177;-50
2023/08/28 03:50:21;;;;;;;1999.90;999.90;;;;;;;14.14;100.00;93818.97;5064610;28;20170;-51
2023/08/28 03:52:46;;;;;;;1999.90;999.90;;;;;;;14.12;100.00;93819.44;5064366;28;20200;-47
2023/08/28 03:55:11;;;;;;;1999.90;999.90;;;;;;;14.07;100.00;93819.31;5063931;28;20176;-50
2023/08/28 03:57:37;;;;;;;1999.90;999.90;;;;;;;13.97;100.00;93815.84;5064383;28;20173;-47
2023/08/28 04:00:10;;;;;;;1999.90;999.90;;;;;;;13.94;100.00;93807.75;5064231;28;20236;-50
2023/08/28 04:02:36;;;;;;;1999.90;999.90;;;;;;;13.82;100.00;93801.25;5064442;28;20231;-50
2023/08/28 04:05:04;;;;;;;1999.90;999.90;;;;;;;13.84;100.00;93804.28;5064456;28;20403;-50
2023/08/28 04:07:31;;;;;;;1999.90;999.90;;;;;;;13.77;100.00;93804.63;5063791;28;20177;-48
2023/08/28 04:09:57;;;;;;;1999.90;999.90;;;;;;;13.81;100.00;93810.72;5064314;28;20184;-47
2023/08/28 04:12:22;;;;;;;1999.90;999.90;;;;;;;13.84;100.00;93803.53;5064189;28;20174;-49
2023/08/28 04:14:48;;;;;;;1999.90;999.90;;;;;;;13.90;100.00;93801.69;5063807;28;20180;-50
2023/08/28 04:17:13;;;;;;;1999.90;999.90;;;;;;;13.88;100.00;93793.91;5063841;28;20205;-49
2023/08/28 04:19:38;;;;;;;1999.90;999.90;;;;;;;13.82;100.00;93779.31;5064058;28;20174;-46
2023/08/28 04:22:05;;;;;;;1999.90;999.90;;;;;;;13.86;100.00;93757.94;5064153;28;20209;-48
2023/08/28 04:24:30;;;;;;;1999.90;999.90;;;;;;;13.89;100.00;93729.59;5063534;28;20252;-46
2023/08/28 04:26:56;;;;;;;1999.90;999.90;;;;;;;13.86;100.00;93727.00;5063676;28;20188;-51
2023/08/28 04:29:21;;;;;;;1999.90;999.90;;;;;;;13.92;100.00;93728.66;5063635;28;20185;-45
2023/08/28 04:31:47;;;;;;;1999.90;999.90;;;;;;;13.91;100.00;93729.88;5064064;28;20174;-48
2023/08/28 04:34:13;;;;;;;1999.90;999.90;;;;;;;13.84;100.00;93732.19;5064083;28;20173;-46
2023/08/28 04:36:38;;;;;;;1999.90;999.90;;;;;;;13.80;100.00;93731.63;5063499;28;20235;-47
2023/08/28 04:39:04;;;;;;;1999.90;999.90;;;;;;;13.81;100.00;93738.63;5063538;28;20174;-48
2023/08/28 04:41:29;;;;;;;1999.90;999.90;;;;;;;13.84;100.00;93735.69;5063445;28;20178;-49
2023/08/28 04:43:54;;;;;;;1999.90;999.90;;;;;;;13.80;100.00;93726.88;5063589;28;20198;-47
2023/08/28 04:46:20;;;;;;;1999.90;999.90;;;;;;;13.82;100.00;93707.19;5063738;28;20174;-51
2023/08/28 04:48:46;;;;;;;1999.90;999.90;;;;;;;13.82;100.00;93716.19;5063426;28;20178;-49
2023/08/28 04:51:11;;;;;;;1999.90;999.90;;;;;;;13.86;100.00;93722.28;5063892;28;20180;-50
2023/08/28 04:53:36;;;;;;;1999.90;999.90;;;;;;;13.90;100.00;93731.09;5063444;28;20182;-53
2023/08/28 04:56:02;;;;;;;1999.90;999.90;;;;;;;13.93;100.00;93730.16;5063789;28;20202;-51
2023/08/28 04:58:27;;;;;;;1999.90;999.90;;;;;;;13.79;100.00;93725.34;5063211;28;20174;-50
2023/08/28 05:00:53;;;;;;;1999.90;999.90;;;;;;;13.95;100.00;93722.22;5063243;28;20221;-49
2023/08/28 05:03:18;;;;;;;1999.90;999.90;;;;;;;14.04;100.00;93719.44;5063522;28;20489;-50
2023/08/28 05:05:43;;;;;;;1999.90;999.90;;;;;;;13.98;100.00;93721.28;5063836;28;20178;-50
2023/08/28 05:08:09;;;;;;;1999.90;999.90;;;;;;;13.96;100.00;93712.78;5066326;28;20350;-50
2023/08/28 05:10:34;;;;;;;1999.90;999.90;;;;;;;13.91;100.00;93724.38;5066930;28;20181;-50
2023/08/28 05:12:59;;;;;;;1999.90;999.90;;;;;;;13.83;100.00;93720.44;5067011;28;20178;-49
2023/08/28 05:15:25;;;;;;;1999.90;999.90;;;;;;;13.81;100.00;93720.19;5066728;28;20173;-47
2023/08/28 05:17:50;;;;;;;1999.90;999.90;;;;;;;13.75;100.00;93711.03;5066942;28;20174;-49
2023/08/28 05:20:15;;;;;;;1999.90;999.90;;;;;;;13.72;100.00;93708.44;5067285;28;20173;-45
2023/08/28 05:22:41;;;;;;;1999.90;999.90;;;;;;;13.51;100.00;93699.25;5067569;28;20174;-50
2023/08/28 05:25:06;;;;;;;1999.90;999.90;;;;;;;13.49;100.00;93707.19;5067511;28;20169;-51
2023/08/28 05:27:32;;;;;;;1999.90;999.90;;;;;;;13.45;100.00;93709.34;5066735;28;20185;-51
2023/08/28 05:29:59;;;;;;;1999.90;999.90;;;;;;;13.43;100.00;93703.53;5066665;28;20173;-56
2023/08/28 05:32:24;;;;;;;1999.90;999.90;;;;;;;13.47;100.00;93692.44;5066287;28;20173;-53
2023/08/28 05:34:49;;;;;;;1999.90;999.90;;;;;;;13.41;100.00;93686.81;5066655;28;20181;-53
2023/08/28 05:37:15;;;;;;;1999.90;999.90;;;;;;;13.41;100.00;93684.06;5066471;28;20239;-48
2023/08/28 05:39:40;;;;;;;1999.90;999.90;;;;;;;13.40;100.00;93676.31;5066457;28;20249;-50
2023/08/28 05:42:05;;;;;;;1999.90;999.90;;;;;;;13.32;100.00;93670.38;5067013;28;20188;-47
2023/08/28 05:44:31;;;;;;;1999.90;999.90;;;;;;;13.35;100.00;93672.19;5066336;28;20218;-50
2023/08/28 05:46:56;;;;;;;1999.90;999.90;;;;;;;13.39;100.00;93659.09;5067244;28;20273;-47
2023/08/28 05:49:21;;;;;;;1999.90;999.90;;;;;;;13.30;100.00;93640.69;5066368;28;20471;-50
2023/08/28 05:51:47;;;;;;;1999.90;999.90;;;;;;;13.32;100.00;93604.59;5066937;28;20178;-50
2023/08/28 05:54:12;;;;;;;1999.90;999.90;;;;;;;13.33;100.00;93589.66;5066837;28;20249;-53
2023/08/28 05:56:37;;;;;;;1999.90;999.90;;;;;;;13.30;100.00;93571.41;5066019;28;20205;-50
2023/08/28 05:59:03;;;;;;;1999.90;999.90;;;;;;;13.23;100.00;93561.53;5066690;28;20181;-51
2023/08/28 06:01:28;;;;;;;1999.90;999.90;;;;;;;13.26;100.00;93574.31;5066069;28;20222;-55
2023/08/28 06:03:56;;;;;;;1999.90;999.90;;;;;;;13.32;100.00;93577.16;5066091;28;20346;-57
2023/08/28 06:06:23;;;;;;;1999.90;999.90;;;;;;;13.30;100.00;93565.91;5065963;28;20180;-58
2023/08/28 06:08:48;;;;;;;1999.90;999.90;;;;;;;13.32;100.00;93571.69;5066450;28;20181;-56
2023/08/28 06:11:13;;;;;;;1999.90;999.90;;;;;;;13.40;100.00;93583.81;5065832;28;20197;-58
2023/08/28 06:13:39;;;;;;;1999.90;999.90;;;;;;;13.39;100.00;93587.78;5065867;28;20280;-55
2023/08/28 06:16:04;;;;;;;1999.90;999.90;;;;;;;13.41;100.00;93555.19;5065777;28;20252;-56
2023/08/28 06:18:30;;;;;;;1999.90;999.90;;;;;;;13.42;100.00;93564.94;5065463;28;20174;-55
2023/08/28 06:20:55;;;;;;;1999.90;999.90;;;;;;;13.53;100.00;93570.66;5066237;28;20249;-54
2023/08/28 06:23:21;;;;;;;1999.90;999.90;;;;;;;13.52;100.00;93569.16;5066223;28;20336;-47
2023/08/28 06:25:47;;;;;;;1999.90;999.90;;;;;;;13.49;100.00;93559.09;5066132;28;20190;-53
2023/08/28 06:28:13;;;;;;;1999.90;999.90;;;;;;;13.50;100.00;93554.34;5065344;28;20174;-56
2023/08/28 06:30:39;;;;;;;1999.90;999.90;;;;;;;13.48;100.00;93565.81;5065896;28;20181;-55
2023/08/28 06:33:04;;;;;;;1999.90;999.90;;;;;;;13.36;100.00;93569.53;5065988;28;20170;-56
2023/08/28 06:35:31;;;;;;;1999.90;999.90;;;;;;;13.47;100.00;93558.81;5065394;28;20178;-56
2023/08/28 06:37:57;;;;;;;1999.90;999.90;;;;;;;13.48;100.00;93546.63;5065429;28;20233;-55
2023/08/28 06:40:22;;;;;;;1999.90;999.90;;;;;;;13.53;100.00;93548.72;5065267;28;20173;-56
2023/08/28 06:42:48;;;;;;;1999.90;999.90;;;;;;;13.59;100.00;93552.34;5065705;28;20189;-56
2023/08/28 06:45:13;;;;;;;1999.90;999.90;;;;;;;13.57;100.00;93554.78;5065722;28;20344;-54
2023/08/28 06:47:39;;;;;;;1999.90;999.90;;;;;;;13.62;100.00;93540.41;5064929;28;20170;-56
2023/08/28 06:50:04;;;;;;;1999.90;999.90;;;;;;;13.64;100.00;93523.50;5065403;28;20295;-57
2023/08/28 06:52:30;;;;;;;1999.90;999.90;;;;;;;13.60;100.00;93520.94;5064763;28;20173;-58
2023/08/28 06:54:55;;;;;;;1999.90;999.90;;;;;;;13.55;100.00;93529.78;5065061;28;20237;-58
2023/08/28 06:57:20;;;;;;;1999.90;999.90;;;;;;;13.55;100.00;93513.34;5065454;28;20198;-58
2023/08/28 06:59:46;;;;;;;1999.90;999.90;;;;;;;13.51;100.00;93490.09;5064797;28;20178;-58
2023/08/28 07:02:11;;;;;;;1999.90;999.90;;;;;;;13.53;100.00;93498.59;5064984;28;20184;-57
2023/08/28 07:04:37;;;;;;;1999.90;999.90;;;;;;;13.58;100.00;93509.66;5065075;28;20200;-58
2023/08/28 07:07:02;;;;;;;1999.90;999.90;;;;;;;13.47;100.00;93508.69;5065352;28;20477;-58
2023/08/28 07:09:28;;;;;;;1999.90;999.90;;;;;;;13.45;100.00;93506.41;5064842;28;20173;-58
2023/08/28 07:11:53;;;;;;;1999.90;999.90;;;;;;;13.46;100.00;93494.22;5064807;28;20173;-59
2023/08/28 07:14:18;;;;;;;1999.90;999.90;;;;;;;13.36;100.00;93490.00;5065231;28;20176;-58
2023/08/28 07:16:44;;;;;;;1999.90;999.90;;;;;;;13.37;100.00;93479.81;5065409;28;20232;-57
2023/08/28 07:19:09;;;;;;;1999.90;999.90;;;;;;;13.44;100.00;93476.72;5064820;28;20173;-58
2023/08/28 07:21:34;;;;;;;1999.90;999.90;;;;;;;13.41;100.00;93481.16;5064628;28;20170;-58
2023/08/28 07:24:00;;;;;;;1999.90;999.90;;;;;;;13.49;100.00;93474.09;5064540;28;20174;-58
2023/08/28 07:26:25;;;;;;;1999.90;999.90;;;;;;;13.46;100.00;93466.81;5064431;28;20284;-58
2023/08/28 07:28:51;;;;;;;1999.90;999.90;;;;;;;13.43;100.00;93478.69;5064366;28;20179;-58
2023/08/28 07:31:16;;;;;;;1999.90;999.90;;;;;;;13.36;100.00;93473.56;5063634;28;20215;-58
2023/08/28 07:33:42;;;;;;;1999.90;999.90;;;;;;;13.47;100.00;93465.56;5064347;28;20228;-59
2023/08/28 07:36:07;;;;;;;1999.90;999.90;;;;;;;13.57;100.00;93450.56;5064370;28;20209;-59
2023/08/28 07:38:32;;;;;;;1999.90;999.90;;;;;;;13.59;100.00;93442.63;5064252;28;20197;-60
2023/08/28 07:40:58;;;;;;;1999.90;999.90;;;;;;;13.61;100.00;93434.69;5064948;28;20170;-60
2023/08/28 07:43:23;;;;;;;1999.90;999.90;;;;;;;13.60;100.00;93422.19;5064215;28;20190;-61
2023/08/28 07:45:48;;;;;;;1999.90;999.90;;;;;;;13.66;100.00;93434.00;5063843;28;20177;-59
2023/08/28 07:48:14;;;;;;;1999.90;999.90;;;;;;;13.66;100.00;93447.72;5064667;28;20196;-60
2023/08/28 07:50:40;;;;;;;1999.90;999.90;;;;;;;13.64;100.00;93476.88;5064127;28;20177;-60
2023/08/28 07:53:06;;;;;;;1999.90;999.90;;;;;;;13.64;100.00;93499.56;5064031;28;20170;-61
2023/08/28 07:55:31;;;;;;;1999.90;999.90;;;;;;;13.67;100.00;93506.88;5064453;28;20196;-61
2023/08/28 07:57:57;;;;;;;1999.90;999.90;;;;;;;13.73;100.00;93524.19;5064138;28;20166;-63
2023/08/28 08:00:22;;;;;;;1999.90;999.90;;;;;;;13.83;100.00;93542.09;5063874;28;20244;-61
2023/08/28 08:02:51;;;;;;;1999.90;999.90;;;;;;;13.80;100.00;93543.03;5063972;28;20166;-61
2023/08/28 08:05:16;;;;;;;1999.90;999.90;;;;;;;13.81;100.00;93572.00;5063884;28;20211;-60
2023/08/28 08:07:42;;;;;;;1999.90;999.90;;;;;;;13.79;100.00;93581.91;5063803;28;20170;-61
2023/08/28 08:10:12;;;;;;;1999.90;999.90;;;;;;;13.82;100.00;93587.22;5064614;28;20506;-62
2023/08/28 08:12:38;;;;;;;1999.90;999.90;;;;;;;13.85;100.00;93583.56;5063767;28;20174;-62
2023/08/28 08:15:06;;;;;;;1999.90;999.90;;;;;;;14.00;100.00;93592.59;5063789;28;20166;-62
2023/08/28 08:17:31;;;;;;;1999.90;999.90;;;;;;;13.88;100.00;93606.56;5064223;28;20197;-62
2023/08/28 08:19:56;;;;;;;1999.90;999.90;;;;;;;13.96;100.00;93611.22;5064292;28;20211;-61
2023/08/28 08:22:22;;;;;;;1999.90;999.90;;;;;;;13.90;100.00;93632.31;5063703;28;20166;-62
2023/08/28 08:24:47;;;;;;;1999.90;999.90;;;;;;;13.85;100.00;93641.19;5064215;28;20173;-61
2023/08/28 08:27:12;;;;;;;1999.90;999.90;;;;;;;13.97;100.00;93653.13;5064244;28;20201;-60
2023/08/28 08:29:38;;;;;;;1999.90;999.90;;;;;;;13.99;100.00;93670.66;5063605;28;20212;-60
2023/08/28 08:32:04;;;;;;;1999.90;999.90;;;;;;;13.96;100.00;93666.13;5063500;28;20166;-59
2023/08/28 08:34:32;;;;;;;1999.90;999.90;;;;;;;13.97;100.00;93675.09;5063944;28;20189;-59
2023/08/28 08:36:57;;;;;;;1999.90;999.90;;;;;;;13.95;100.00;93674.81;5063459;28;20194;-59
2023/08/28 08:39:24;;;;;;;1999.90;999.90;;;;;;;13.92;100.00;93673.00;5063526;28;20173;-61
2023/08/28 08:41:49;;;;;;;1999.90;999.90;;;;;;;14.00;100.00;93652.97;5064183;28;20176;-61
2023/08/28 08:44:14;;;;;;;1999.90;999.90;;;;;;;13.89;100.00;93658.22;5067497;28;20194;-61
2023/08/28 08:46:41;;;;;;;1999.90;999.90;;;;;;;13.94;100.00;93654.06;5067531;28;20170;-60
2023/08/28 08:49:13;;;;;;;1999.90;999.90;;;;;;;14.04;100.00;93648.06;5067993;28;20177;-58
2023/08/28 08:51:45;;;;;;;1999.90;999.90;;;;;;;13.98;100.00;93652.69;5067932;28;20174;-58
2023/08/28 08:54:26;;;;;;;1999.90;999.90;;;;;;;14.01;100.00;93665.47;5067481;28;20173;-58
2023/08/28 08:56:57;;;;;;;1999.90;999.90;;;;;;;13.90;100.00;93669.94;5067667;28;20190;-58
2023/08/28 08:59:22;;;;;;;1999.90;999.90;;;;;;;14.02;100.00;93660.75;5067832;28;20166;-59
2023/08/28 09:01:48;;;;;;;1999.90;999.90;;;;;;;13.98;100.00;93655.41;5067340;28;20596;-58
2023/08/28 09:04:14;;;;;;;1999.90;999.90;;;;;;;13.95;100.00;93611.69;5067221;28;20170;-58
2023/08/28 09:06:40;;;;;;;1999.90;999.90;;;;;;;14.06;100.00;93574.22;5067106;28;20335;-58
2023/08/28 09:09:08;;;;;;;1999.90;999.90;;;;;;;14.03;100.00;93536.78;5067619;28;20188;-58
2023/08/28 09:11:36;;;;;;;1999.90;999.90;;;;;;;13.98;100.00;93507.22;5066973;28;20200;-58
2023/08/28 09:14:01;;;;;;;1999.90;999.90;;;;;;;13.83;100.00;93486.44;5067498;28;20245;-57
2023/08/28 09:16:27;;;;;;;1999.90;999.90;;;;;;;13.99;100.00;93478.53;5066823;28;20201;-55
2023/08/28 09:18:53;;;;;;;1999.90;999.90;;;;;;;13.97;100.00;93466.50;5066922;28;20170;-53
2023/08/28 09:21:19;;;;;;;1999.90;999.90;;;;;;;13.97;100.00;93439.84;5066996;28;20166;-52
2023/08/28 09:23:52;;;;;;;1999.90;999.90;;;;;;;13.95;100.00;93425.81;5067426;28;20169;-52
2023/08/28 09:26:20;;;;;;;1999.90;999.90;;;;;;;13.91;100.00;93441.72;5067374;28;20165;-52
2023/08/28 09:28:59;;;;;;;1999.90;999.90;;;;;;;14.01;100.00;93450.63;5067243;28;20180;-51
2023/08/28 09:31:31;;;;;;;1999.90;999.90;;;;;;;13.88;100.00;93481.06;5066661;28;20232;-53
2023/08/28 09:33:56;;;;;;;1999.90;999.90;;;;;;;13.99;100.00;93503.22;5066664;28;20170;-54
2023/08/28 09:36:22;;;;;;;1999.90;999.90;;;;;;;14.16;100.00;93518.03;5066380;28;20220;-53
2023/08/28 09:38:47;;;;;;;1999.90;999.90;;;;;;;14.09;100.00;93529.38;5066825;28;20166;-53
2023/08/28 09:41:13;;;;;;;1999.90;999.90;;;;;;;14.31;100.00;93513.34;5066629;28;20182;-49
2023/08/28 09:43:38;;;;;;;1999.90;999.90;;;;;;;14.29;100.00;93520.53;5066901;28;20224;-51
2023/08/28 09:46:05;;;;;;;1999.90;999.90;;;;;;;14.41;100.00;93522.25;5066934;28;20244;-51
2023/08/28 09:48:32;;;;;;;1999.90;999.90;;;;;;;14.72;100.00;93539.75;5066183;28;20166;-50
2023/08/28 09:51:00;;;;;;;1999.90;999.90;;;;;;;14.65;100.00;93553.13;5066328;28;20166;-53
2023/08/28 09:53:26;;;;;;;1999.90;999.90;;;;;;;14.60;100.00;93562.78;5065135;28;20169;-55
2023/08/28 09:55:53;;;;;;;1999.90;999.90;;;;;;;14.58;100.00;93579.00;5066394;28;20198;-49
2023/08/28 09:58:23;;;;;;;1999.90;999.90;;;;;;;14.68;100.00;93574.91;5066045;28;20170;-55
2023/08/28 10:00:50;;;;;;;1999.90;999.90;;;;;;;14.79;100.00;93575.09;5065687;28;20233;-55
2023/08/28 10:03:15;;;;;;;1999.90;999.90;;;;;;;14.55;100.00;93588.19;5066615;28;20223;-51
2023/08/28 10:05:43;;;;;;;1999.90;999.90;;;;;;;14.88;100.00;93583.28;5065874;28;20174;-53
2023/08/28 10:08:10;;;;;;;1999.90;999.90;;;;;;;14.96;100.00;93617.38;5065993;28;20233;-55
2023/08/28 10:10:37;;;;;;;1999.90;999.90;;;;;;;15.11;100.00;93617.38;5066263;28;20197;-54
2023/08/28 10:13:05;;;;;;;1999.90;999.90;;;;;;;14.90;100.00;93624.75;5065674;28;20233;-53
2023/08/28 10:15:33;;;;;;;1999.90;999.90;;;;;;;15.09;100.00;93631.63;5065731;28;20166;-56
2023/08/28 10:18:03;;;;;;;1999.90;999.90;;;;;;;15.31;100.00;93620.97;5066260;28;20177;-42
2023/08/28 10:20:30;;;;;;;1999.90;999.90;;;;;;;15.46;100.00;93643.75;5066203;28;20165;-43
2023/08/28 10:22:57;;;;;;;1999.90;999.90;;;;;;;15.11;100.00;93667.63;5065787;28;20170;-58
2023/08/28 10:25:25;;;;;;;1999.90;999.90;;;;;;;15.44;100.00;93656.47;5065715;28;20162;-58
2023/08/28 10:27:51;;;;;;;1999.90;999.90;;;;;;;15.37;100.00;93643.84;5066174;28;20233;-58
2023/08/28 10:30:19;;;;;;;1999.90;999.90;;;;;;;15.48;100.00;93596.50;5066035;28;20189;-56
2023/08/28 10:32:44;;;;;;;1999.90;999.90;;;;;;;15.68;100.00;93550.50;5065443;28;20174;-58
2023/08/28 10:35:10;;;;;;;1999.90;999.90;;;;;;;15.92;100.00;93498.72;5065477;28;20233;-57
2023/08/28 10:37:37;;;;;;;1999.90;999.90;;;;;;;16.08;100.00;93478.91;5065655;28;20194;-56
2023/08/28 10:40:03;;;;;;;1999.90;999.90;;;;;;;15.96;100.00;93435.94;5065309;28;20166;-59
2023/08/28 10:42:30;;;;;;;1999.90;999.90;;;;;;;16.20;100.00;93395.13;5065307;28;20237;-66